Time;durP1;ratioP1;P1;durP2;ratioP2;P2;SDS_P1;SDS_P2;PMS_P1;PMS_P2;Temp;Humidity;BMP_temperature;BMP_pressure;BME280_temperature;BME280_humidity;BME280_pressure;Samples;Min_cycle;Max_cycle;Signal;HPM_P1;HPM_P2
2023/05/26 00:02:24;;;;;;;;;;;8.90;99.90;;;;;;6126985;23;19928;-75
2023/05/26 00:04:50;;;;;;;;;;;8.90;99.90;;;;;;6125912;23;19964;-76
2023/05/26 00:07:16;;;;;;;;;;;8.90;99.90;;;;;;6127094;23;19925;-75
2023/05/26 00:09:41;;;;;;;;;;;8.90;99.90;;;;;;6100142;23;19921;-75
2023/05/26 00:12:07;;;;;;;;;;;8.80;99.90;;;;;;6126866;23;20146;-75
2023/05/26 00:14:33;;;;;;;;;;;8.80;99.90;;;;;;6099585;23;19932;-75
2023/05/26 00:16:58;;;;;;;;;;;8.80;99.90;;;;;;6125630;23;19985;-75
2023/05/26 00:19:24;;;;;;;;;;;8.80;99.90;;;;;;6127415;23;19952;-76
2023/05/26 00:21:50;;;;;;;;;;;8.80;99.90;;;;;;6100749;23;19921;-75
2023/05/26 00:24:16;;;;;;;;;;;8.80;99.90;;;;;;6100168;23;19924;-75
2023/05/26 00:26:44;;;;;;;;;;;8.80;99.90;;;;;;6114656;23;19949;-75
2023/05/26 00:29:10;;;;;;;;;;;8.70;99.90;;;;;;6100431;23;19921;-75
2023/05/26 00:31:35;;;;;;;;;;;9.90;99.90;;;;;;6126627;23;19959;-75
2023/05/26 00:34:01;;;;;;;;;;;8.80;99.90;;;;;;6126890;23;19921;-75
2023/05/26 00:36:26;;;;;;;;;;;9.10;99.90;;;;;;6127065;23;19928;-75
2023/05/26 00:38:52;;;;;;;;;;;8.80;99.90;;;;;;6099666;23;20044;-75
2023/05/26 00:41:17;;;;;;;;;;;8.80;99.90;;;;;;6126969;23;20237;-75
2023/05/26 00:43:43;;;;;;;;;;;9.00;99.90;;;;;;6114451;23;20481;-75
2023/05/26 00:46:08;;;;;;;;;;;8.80;99.90;;;;;;6099282;23;19925;-75
2023/05/26 00:48:54;;;;;;;;;;;8.80;99.90;;;;;;6100580;23;19921;-75
2023/05/26 00:51:20;;;;;;;;;;;8.80;99.90;;;;;;6125818;23;19920;-74
2023/05/26 00:53:46;;;;;;;;;;;8.80;99.90;;;;;;6099347;23;19959;-75
2023/05/26 00:56:14;;;;;;;;;;;8.80;99.90;;;;;;6100160;23;20234;-75
2023/05/26 00:58:40;;;;;;;;;;;8.70;99.90;;;;;;6100444;23;19917;-75
2023/05/26 01:01:05;;;;;;;;;;;8.70;99.90;;;;;;6125425;23;19932;-75
2023/05/26 01:03:31;;;;;;;;;;;8.70;99.90;;;;;;6126896;23;19996;-75
2023/05/26 01:05:56;;;;;;;;;;;8.60;99.90;;;;;;6125027;23;19968;-75
2023/05/26 01:08:22;;;;;;;;;;;8.60;99.90;;;;;;6099986;23;19927;-75
2023/05/26 01:10:47;;;;;;;;;;;9.60;99.90;;;;;;6099921;23;19924;-75
2023/05/26 01:13:20;;;;;;;;;;;8.50;99.90;;;;;;6125579;23;19921;-75
2023/05/26 01:15:57;;;;;;;;;;;8.50;99.90;;;;;;6126462;23;19931;-75
2023/05/26 01:18:40;;;;;;;;;;;8.50;99.90;;;;;;6126633;23;20341;-75
2023/05/26 01:21:15;;;;;;;;;;;8.40;99.90;;;;;;6125041;23;20000;-75
2023/05/26 01:23:48;;;;;;;;;;;8.40;99.90;;;;;;6100403;23;19928;-75
2023/05/26 01:26:27;;;;;;;;;;;8.30;99.90;;;;;;6100777;23;19921;-75
2023/05/26 01:28:58;;;;;;;;;;;8.30;99.90;;;;;;6098744;23;19928;-74
2023/05/26 01:31:24;;;;;;;;;;;8.20;99.90;;;;;;6100080;23;19921;-75
2023/05/26 01:33:49;;;;;;;;;;;8.30;99.90;;;;;;6126078;23;19948;-75
2023/05/26 01:36:15;;;;;;;;;;;8.20;99.90;;;;;;6099014;23;19925;-74
2023/05/26 01:38:40;;;;;;;;;;;8.20;99.90;;;;;;6100789;23;19921;-74
2023/05/26 01:41:11;;;;;;;;;;;8.20;99.90;;;;;;6125256;23;20015;-75
2023/05/26 01:43:51;;;;;;;;;;;8.20;99.90;;;;;;6100077;23;19925;-74
2023/05/26 01:46:20;;;;;;;;;;;8.20;99.90;;;;;;6100297;23;20254;-74
2023/05/26 01:48:47;;;;;;;;;;;8.10;99.90;;;;;;6099720;23;19948;-73
2023/05/26 01:51:15;;;;;;;;;;;8.80;99.90;;;;;;6127152;23;19929;-73
2023/05/26 01:53:42;;;;;;;;;;;8.10;99.90;;;;;;6102265;23;19972;-74
2023/05/26 01:56:08;;;;;;;;;;;8.00;99.90;;;;;;6104911;23;20398;-74
2023/05/26 01:58:34;;;;;;;;;;;8.40;99.90;;;;;;6131601;23;19921;-74
2023/05/26 02:01:03;;;;;;;;;;;8.00;99.90;;;;;;6129773;23;19921;-75
2023/05/26 02:03:28;;;;;;;;;;;7.90;99.90;;;;;;6098762;23;19945;-75
2023/05/26 02:05:54;;;;;;;;;;;8.80;99.90;;;;;;6099936;23;19921;-74
2023/05/26 02:08:21;;;;;;;;;;;7.90;99.90;;;;;;6126606;23;19921;-75
2023/05/26 02:10:50;;;;;;;;;;;7.90;99.90;;;;;;6099298;23;19967;-74
2023/05/26 02:13:15;;;;;;;;;;;8.70;99.90;;;;;;6124906;23;20239;-75
2023/05/26 02:15:41;;;;;;;;;;;8.80;99.90;;;;;;6126384;23;19944;-75
2023/05/26 02:18:06;;;;;;;;;;;7.90;99.90;;;;;;6098466;23;19971;-74
2023/05/26 02:20:32;;;;;;;;;;;8.00;99.90;;;;;;6100240;23;20007;-75
2023/05/26 02:22:57;;;;;;;;;;;8.00;99.90;;;;;;6125470;23;19925;-74
2023/05/26 02:25:23;;;;;;;;;;;8.10;99.90;;;;;;6124935;23;19925;-75
2023/05/26 02:27:48;;;;;;;;;;;8.10;99.90;;;;;;6125355;23;19921;-74
2023/05/26 02:30:14;;;;;;;;;;;8.20;99.90;;;;;;6125092;23;20000;-75
2023/05/26 02:32:40;;;;;;;;;;;8.10;99.90;;;;;;6099620;23;19956;-75
2023/05/26 02:35:06;;;;;;;;;;;8.20;99.90;;;;;;6099534;23;20008;-74
2023/05/26 02:37:32;;;;;;;;;;;8.20;99.90;;;;;;6098712;23;19921;-75
2023/05/26 02:39:57;;;;;;;;;;;8.20;99.90;;;;;;6099221;23;19917;-75
2023/05/26 02:42:23;;;;;;;;;;;8.20;99.90;;;;;;6099547;23;19947;-75
2023/05/26 02:44:49;;;;;;;;;;;8.60;99.90;;;;;;6100082;23;20322;-75
2023/05/26 02:47:14;;;;;;;;;;;8.20;99.90;;;;;;6101836;23;19968;-75
2023/05/26 02:49:40;;;;;;;;;;;8.20;99.90;;;;;;6101679;23;19925;-75
2023/05/26 02:52:06;;;;;;;;;;;8.60;99.90;;;;;;6100028;23;19929;-75
2023/05/26 02:54:31;;;;;;;;;;;8.20;99.90;;;;;;6127511;23;19991;-75
2023/05/26 02:57:18;;;;;;;;;;;8.20;99.90;;;;;;6100993;23;19928;-75
2023/05/26 02:59:43;;;;;;;;;;;8.20;99.90;;;;;;6125907;23;20364;-75
2023/05/26 03:02:11;;;;;;;;;;;8.10;99.90;;;;;;6127067;23;20337;-75
2023/05/26 03:04:36;;;;;;;;;;;9.30;99.90;;;;;;6101447;23;19917;-75
2023/05/26 03:07:02;;;;;;;;;;;8.10;99.90;;;;;;6126202;23;19927;-75
2023/05/26 03:09:27;;;;;;;;;;;8.10;99.90;;;;;;6101397;23;19952;-75
2023/05/26 03:11:53;;;;;;;;;;;8.10;99.90;;;;;;6101282;23;19924;-75
2023/05/26 03:14:18;;;;;;;;;;;8.20;99.90;;;;;;6126299;23;20281;-74
2023/05/26 03:16:44;;;;;;;;;;;8.00;99.90;;;;;;6127743;23;20250;-74
2023/05/26 03:19:09;;;;;;;;;;;9.00;99.90;;;;;;6127098;23;19971;-74
2023/05/26 03:21:38;;;;;;;;;;;7.90;99.90;;;;;;6126687;23;19925;-75
2023/05/26 03:24:06;;;;;;;;;;;7.90;99.90;;;;;;6100255;23;19931;-74
2023/05/26 03:26:32;;;;;;;;;;;7.90;99.90;;;;;;6125948;23;19980;-75
2023/05/26 03:28:57;;;;;;;;;;;7.90;99.90;;;;;;6100350;23;19956;-75
2023/05/26 03:31:23;;;;;;;;;;;7.90;99.90;;;;;;6127274;23;19921;-75
2023/05/26 03:33:49;;;;;;;;;;;8.50;99.90;;;;;;6099901;23;19917;-75
2023/05/26 03:36:14;;;;;;;;;;;7.80;99.90;;;;;;6101584;23;19920;-74
2023/05/26 03:38:40;;;;;;;;;;;7.80;99.90;;;;;;6100766;23;20278;-75
2023/05/26 03:41:05;;;;;;;;;;;7.80;99.90;;;;;;6125380;23;19991;-74
2023/05/26 03:43:31;;;;;;;;;;;8.20;99.90;;;;;;6100709;23;20000;-75
2023/05/26 03:45:56;;;;;;;;;;;7.80;99.90;;;;;;6126218;23;19921;-75
2023/05/26 03:48:22;;;;;;;;;;;7.80;99.90;;;;;;6126018;23;20322;-75
2023/05/26 03:50:47;;;;;;;;;;;7.80;99.90;;;;;;6100697;23;19927;-75
2023/05/26 03:53:13;;;;;;;;;;;7.80;99.90;;;;;;6101059;23;19972;-75
2023/05/26 03:55:38;;;;;;;;;;;7.80;99.90;;;;;;6126183;23;19921;-75
2023/05/26 03:58:04;;;;;;;;;;;9.40;99.90;;;;;;6126600;23;19921;-75
2023/05/26 04:00:32;;;;;;;;;;;9.70;99.90;;;;;;6127099;23;19963;-76
2023/05/26 04:03:00;;;;;;;;;;;9.00;99.90;;;;;;6125688;23;19928;-76
2023/05/26 04:05:26;;;;;;;;;;;7.90;99.90;;;;;;6126974;23;19921;-76
2023/05/26 04:07:52;;;;;;;;;;;7.90;99.90;;;;;;6100481;23;20393;-76
2023/05/26 04:10:17;;;;;;;;;;;7.90;99.90;;;;;;6125883;23;19925;-76
2023/05/26 04:12:43;;;;;;;;;;;8.00;99.90;;;;;;6126420;23;20249;-75
2023/05/26 04:15:09;;;;;;;;;;;8.00;99.90;;;;;;6094779;23;19918;-75
2023/05/26 04:17:37;;;;;;;;;;;8.00;99.90;;;;;;6125134;23;19925;-76
2023/05/26 04:20:07;;;;;;;;;;;8.10;99.90;;;;;;6100113;23;19924;-75
2023/05/26 04:22:33;;;;;;;;;;;8.10;99.90;;;;;;6126889;23;19945;-75
2023/05/26 04:24:58;;;;;;;;;;;8.10;99.90;;;;;;6125154;23;19921;-75
2023/05/26 04:27:24;;;;;;;;;;;8.70;99.90;;;;;;6100259;23;20353;-76
2023/05/26 04:29:50;;;;;;;;;;;8.50;99.90;;;;;;6098820;23;19921;-75
2023/05/26 04:32:16;;;;;;;;;;;8.30;99.90;;;;;;6126736;23;19979;-76
2023/05/26 04:34:44;;;;;;;;;;;8.30;99.90;;;;;;6126882;23;19917;-76
2023/05/26 04:37:09;;;;;;;;;;;8.30;99.90;;;;;;6125202;23;20737;-76
2023/05/26 04:39:35;;;;;;;;;;;8.40;99.90;;;;;;6100369;23;19960;-75
2023/05/26 04:42:03;;;;;;;;;;;8.50;99.90;;;;;;6125952;23;19923;-75
2023/05/26 04:44:29;;;;;;;;;;;8.50;99.90;;;;;;6099165;23;19921;-75
2023/05/26 04:46:56;;;;;;;;;;;8.60;99.90;;;;;;6125811;23;20334;-76
2023/05/26 04:49:23;;;;;;;;;;;8.60;99.90;;;;;;6100027;23;19928;-76
2023/05/26 04:51:56;;;;;;;;;;;8.70;99.90;;;;;;6124968;23;19921;-76
2023/05/26 04:54:24;;;;;;;;;;;8.80;99.90;;;;;;6100074;23;19953;-76
2023/05/26 04:56:50;;;;;;;;;;;9.00;99.90;;;;;;6125385;23;19921;-76
2023/05/26 04:59:21;;;;;;;;;;;9.00;99.90;;;;;;6124538;23;19984;-73
2023/05/26 05:01:47;;;;;;;;;;;9.10;99.90;;;;;;6126364;23;19920;-75
2023/05/26 05:04:13;;;;;;;;;;;8.20;99.90;;;;;;6099790;23;19955;-75
2023/05/26 05:06:39;;;;;;;;;;;9.20;99.90;;;;;;6124581;23;19921;-75
2023/05/26 05:09:05;;;;;;;;;;;9.30;99.90;;;;;;6125204;23;19931;-75
2023/05/26 05:11:30;;;;;;;;;;;9.40;99.90;;;;;;6099698;23;20289;-73
2023/05/26 05:13:56;;;;;;;;;;;9.80;99.90;;;;;;6124944;23;19925;-74
2023/05/26 05:16:24;;;;;;;;;;;10.40;99.90;;;;;;6100044;23;19921;-75
2023/05/26 05:18:53;;;;;;;;;;;9.70;99.90;;;;;;6125974;23;19928;-75
2023/05/26 05:21:18;;;;;;;;;;;10.50;99.90;;;;;;6099184;23;19927;-73
2023/05/26 05:23:45;;;;;;;;;;;11.30;99.90;;;;;;6126413;23;19921;-79
2023/05/26 05:26:11;;;;;;;;;;;10.00;99.90;;;;;;6125328;23;19928;-76
2023/05/26 05:28:37;;;;;;;;;;;10.00;99.90;;;;;;6099658;23;19925;-77
2023/05/26 05:31:03;;;;;;;;;;;10.10;99.90;;;;;;6101810;23;19948;-77
2023/05/26 05:33:28;;;;;;;;;;;10.20;99.90;;;;;;6103924;23;19924;-75
2023/05/26 05:35:54;;;;;;;;;;;10.20;99.90;;;;;;6125923;23;20307;-77
2023/05/26 05:38:19;;;;;;;;;;;10.40;99.90;;;;;;6125780;23;19921;-71
2023/05/26 05:40:45;;;;;;;;;;;11.10;99.90;;;;;;6098614;23;20027;-71
2023/05/26 05:43:10;;;;;;;;;;;10.50;99.90;;;;;;6125356;23;19928;-71
2023/05/26 05:45:36;;;;;;;;;;;10.60;99.90;;;;;;6126033;23;19921;-70
2023/05/26 05:48:01;;;;;;;;;;;10.50;99.90;;;;;;6098890;23;20007;-68
2023/05/26 05:50:27;;;;;;;;;;;10.60;99.90;;;;;;6102117;23;19921;-71
2023/05/26 05:52:53;;;;;;;;;;;10.60;99.90;;;;;;6100942;23;20278;-72
2023/05/26 05:55:18;;;;;;;;;;;10.70;99.90;;;;;;6125406;23;19916;-74
2023/05/26 05:57:44;;;;;;;;;;;10.70;99.90;;;;;;6100086;23;19921;-73
2023/05/26 06:00:11;;;;;;;;;;;10.80;99.90;;;;;;6098705;23;19924;-74
2023/05/26 06:02:39;;;;;;;;;;;10.90;99.90;;;;;;6098772;23;19925;-73
2023/05/26 06:05:04;;;;;;;;;;;10.90;99.90;;;;;;6123014;23;20338;-75
2023/05/26 06:07:30;;;;;;;;;;;9.90;99.90;;;;;;6097440;23;19921;-72
2023/05/26 06:09:57;;;;;;;;;;;11.40;99.90;;;;;;6096053;23;20062;-71
2023/05/26 06:12:22;;;;;;;;;;;11.10;99.90;;;;;;6097361;23;20330;-73
2023/05/26 06:14:48;;;;;;;;;;;11.10;99.90;;;;;;6122039;23;19920;-73
2023/05/26 06:17:13;;;;;;;;;;;11.70;99.90;;;;;;6123513;23;19928;-73
2023/05/26 06:19:39;;;;;;;;;;;11.20;99.90;;;;;;6126856;23;19921;-73
2023/05/26 06:22:05;;;;;;;;;;;11.40;99.90;;;;;;6127265;23;19927;-73
2023/05/26 06:24:33;;;;;;;;;;;11.40;99.90;;;;;;6127077;23;20227;-74
2023/05/26 06:27:02;;;;;;;;;;;11.50;99.90;;;;;;6127232;23;19921;-70
2023/05/26 06:29:27;;;;;;;;;;;13.00;99.90;;;;;;6126798;23;19921;-71
2023/05/26 06:31:53;;;;;;;;;;;11.60;99.90;;;;;;6101371;23;19928;-73
2023/05/26 06:34:19;;;;;;;;;;;11.60;99.90;;;;;;6101817;23;19920;-74
2023/05/26 06:36:44;;;;;;;;;;;11.70;99.90;;;;;;6100430;23;20273;-78
2023/05/26 06:39:10;;;;;;;;;;;11.80;99.90;;;;;;6127030;23;19921;-73
2023/05/26 06:41:35;;;;;;;;;;;11.90;99.90;;;;;;6100976;23;20319;-78
2023/05/26 06:44:01;;;;;;;;;;;11.90;99.90;;;;;;6099645;23;19976;-77
2023/05/26 06:46:27;;;;;;;;;;;12.00;99.90;;;;;;6127569;23;19988;-76
2023/05/26 06:48:57;;;;;;;;;;;13.70;99.90;;;;;;6127040;23;19925;-76
2023/05/26 06:51:29;;;;;;;;;;;12.20;99.90;;;;;;6101265;23;20229;-75
2023/05/26 06:53:59;;;;;;;;;;;12.30;99.90;;;;;;6127334;23;19943;-76
2023/05/26 06:56:26;;;;;;;;;;;12.30;99.90;;;;;;6125107;23;19925;-76
2023/05/26 06:58:52;;;;;;;;;;;12.30;99.90;;;;;;6126097;23;20282;-75
2023/05/26 07:01:21;;;;;;;;;;;12.40;99.90;;;;;;6101335;23;19921;-76
2023/05/26 07:03:47;;;;;;;;;;;12.50;99.90;;;;;;6101570;23;19921;-74
2023/05/26 07:06:12;;;;;;;;;;;12.60;99.90;;;;;;6126762;23;19921;-74
2023/05/26 07:08:43;;;;;;;;;;;12.60;99.90;;;;;;6127660;23;20345;-74
2023/05/26 07:11:09;;;;;;;;;;;12.80;99.90;;;;;;6126927;23;19976;-75
2023/05/26 07:13:38;;;;;;;;;;;13.40;99.90;;;;;;6100556;23;20353;-76
2023/05/26 07:16:04;;;;;;;;;;;14.00;99.90;;;;;;6126720;23;20334;-74
2023/05/26 07:18:29;;;;;;;;;;;13.30;99.90;;;;;;6127700;23;19972;-74
2023/05/26 07:20:55;;;;;;;;;;;13.40;99.90;;;;;;6099819;23;20298;-75
2023/05/26 07:23:20;;;;;;;;;;;13.90;99.90;;;;;;6101478;23;19920;-74
2023/05/26 07:26:09;;;;;;;;;;;14.30;99.90;;;;;;6099641;23;20345;-74
2023/05/26 07:28:50;;;;;;;;;;;16.10;99.90;;;;;;6127380;23;20250;-74
2023/05/26 07:31:16;;;;;;;;;;;15.90;99.90;;;;;;6100929;23;19928;-73
2023/05/26 07:33:41;;;;;;;;;;;16.20;99.90;;;;;;6126631;23;19921;-72
2023/05/26 07:36:07;;;;;;;;;;;16.80;99.50;;;;;;6101221;23;19925;-72
2023/05/26 07:38:32;;;;;;;;;;;17.00;97.40;;;;;;6101070;23;20282;-72
2023/05/26 07:40:58;;;;;;;;;;;17.20;96.80;;;;;;6099548;23;19921;-72
2023/05/26 07:43:24;;;;;;;;;;;17.50;97.20;;;;;;6100697;23;19957;-72
2023/05/26 07:45:49;;;;;;;;;;;17.70;96.30;;;;;;6126169;23;19929;-73
2023/05/26 07:48:15;;;;;;;;;;;17.90;95.50;;;;;;6100064;23;20004;-72
2023/05/26 07:50:41;;;;;;;;;;;18.00;95.90;;;;;;6100952;23;19921;-71
2023/05/26 07:53:06;;;;;;;;;;;18.30;96.00;;;;;;6126424;23;19921;-72
2023/05/26 07:55:32;;;;;;;;;;;18.70;94.60;;;;;;6100221;23;19960;-72
2023/05/26 07:57:57;;;;;;;;;;;18.90;94.50;;;;;;6126755;23;19943;-72
2023/05/26 08:00:23;;;;;;;;;;;19.00;94.10;;;;;;6127458;23;19928;-72
2023/05/26 08:02:52;;;;;;;;;;;19.20;93.60;;;;;;6100010;23;19964;-74
2023/05/26 08:05:18;;;;;;;;;;;19.40;94.00;;;;;;6101029;23;19921;-75
2023/05/26 08:07:43;;;;;;;;;;;19.40;93.70;;;;;;6101082;23;20242;-77
2023/05/26 08:10:09;;;;;;;;;;;19.50;93.00;;;;;;6100014;23;19925;-79
2023/05/26 08:12:38;;;;;;;;;;;19.60;93.30;;;;;;6101101;23;20002;-76
2023/05/26 08:15:04;;;;;;;;;;;20.00;92.20;;;;;;6123195;23;19924;-71
2023/05/26 08:24:08;;;;;;;;;;;20.10;91.00;;;;;;6125458;23;19960;-71
2023/05/26 08:26:43;;;;;;;;;;;20.80;91.10;;;;;;6100726;23;19921;-71
2023/05/26 08:29:10;;;;;;;;;;;21.00;91.60;;;;;;6099319;23;19921;-74
2023/05/26 08:31:36;;;;;;;;;;;20.90;90.60;;;;;;6126753;23;20338;-74
2023/05/26 08:34:01;;;;;;;;;;;21.10;90.30;;;;;;6126550;23;19957;-74
2023/05/26 08:36:27;;;;;;;;;;;21.20;90.20;;;;;;6125840;23;19927;-73
2023/05/26 08:38:52;;;;;;;;;;;21.40;89.30;;;;;;6099943;23;20004;-73
2023/05/26 08:41:18;;;;;;;;;;;21.30;89.70;;;;;;6099982;23;19921;-74
2023/05/26 08:43:45;;;;;;;;;;;21.40;91.20;;;;;;6099650;23;19980;-73
2023/05/26 08:46:12;;;;;;;;;;;21.80;90.00;;;;;;6100807;23;20189;-74
2023/05/26 08:48:41;;;;;;;;;;;21.90;89.30;;;;;;6100713;23;19921;-73
2023/05/26 08:51:07;;;;;;;;;;;22.00;90.00;;;;;;6098887;23;19920;-72
2023/05/26 08:53:33;;;;;;;;;;;21.50;88.20;;;;;;6100401;23;20357;-71
2023/05/26 08:56:00;;;;;;;;;;;21.40;89.50;;;;;;6099989;23;19920;-72
2023/05/26 08:58:26;;;;;;;;;;;21.70;88.70;;;;;;6125788;23;20231;-72
2023/05/26 09:00:52;;;;;;;;;;;22.20;90.10;;;;;;6126361;23;20254;-73
2023/05/26 09:03:18;;;;;;;;;;;22.20;88.10;;;;;;6100402;23;19925;-72
2023/05/26 09:05:44;;;;;;;;;;;22.30;88.60;;;;;;6125566;23;20219;-72
2023/05/26 09:08:13;;;;;;;;;;;22.40;86.50;;;;;;6126236;23;19921;-70
2023/05/26 09:10:38;;;;;;;;;;;22.30;87.50;;;;;;6126718;23;20349;-73
2023/05/26 09:13:05;;;;;;;;;;;22.10;87.00;;;;;;6098982;23;19920;-74
2023/05/26 09:15:37;;;;;;;;;;;21.80;86.50;;;;;;6100591;23;20250;-73
2023/05/26 09:18:07;;;;;;;;;;;22.10;88.70;;;;;;6100173;23;20306;-73
2023/05/26 09:20:42;;;;;;;;;;;22.10;87.90;;;;;;6099852;23;19921;-71
2023/05/26 09:23:08;;;;;;;;;;;22.10;87.10;;;;;;6126118;23;19931;-73
2023/05/26 09:25:34;;;;;;;;;;;22.50;88.40;;;;;;6125165;23;19992;-71
2023/05/26 09:28:07;;;;;;;;;;;22.50;86.80;;;;;;6097746;23;20061;-71
2023/05/26 09:30:39;;;;;;;;;;;22.10;86.80;;;;;;6123757;23;19928;-70
2023/05/26 09:33:05;;;;;;;;;;;21.70;86.70;;;;;;6097206;23;20357;-71
2023/05/26 09:35:35;;;;;;;;;;;22.00;86.90;;;;;;6124406;23;19925;-72
2023/05/26 09:38:02;;;;;;;;;;;22.20;86.10;;;;;;6124964;23;19928;-71
2023/05/26 09:40:27;;;;;;;;;;;22.30;90.00;;;;;;6123997;23;19917;-71
2023/05/26 09:42:53;;;;;;;;;;;22.30;85.70;;;;;;6100761;23;20005;-71
2023/05/26 09:45:22;;;;;;;;;;;22.40;85.60;;;;;;6127632;23;19920;-71
2023/05/26 09:47:52;;;;;;;;;;;22.20;87.30;;;;;;6100648;23;20024;-71
2023/05/26 09:50:17;;;;;;;;;;;21.70;87.30;;;;;;6102215;23;19925;-70
2023/05/26 09:52:44;;;;;;;;;;;21.60;90.50;;;;;;6101923;23;19956;-71
2023/05/26 09:55:09;;;;;;;;;;;21.60;89.50;;;;;;6129106;23;19957;-71
2023/05/26 09:57:37;;;;;;;;;;;21.50;86.90;;;;;;6106857;23;19957;-71
2023/05/26 10:00:10;;;;;;;;;;;21.90;90.00;;;;;;6107026;23;19972;-71
2023/05/26 10:02:38;;;;;;;;;;;22.00;89.00;;;;;;6078454;23;19933;-71
2023/05/26 10:05:05;;;;;;;;;;;22.10;87.50;;;;;;6102156;23;19921;-71
2023/05/26 10:07:32;;;;;;;;;;;22.30;88.20;;;;;;6099331;23;19928;-71
2023/05/26 10:09:58;;;;;;;;;;;22.20;86.20;;;;;;6100681;23;19921;-71
2023/05/26 10:12:27;;;;;;;;;;;21.90;88.40;;;;;;6126327;23;19917;-71
2023/05/26 10:14:53;;;;;;;;;;;21.90;88.70;;;;;;6124785;23;19921;-71
2023/05/26 10:17:19;;;;;;;;;;;22.20;88.30;;;;;;6100130;23;19917;-71
2023/05/26 10:19:45;;;;;;;;;;;22.30;86.70;;;;;;6099725;23;19921;-71
2023/05/26 10:22:13;;;;;;;;;;;22.50;88.50;;;;;;6098989;23;20257;-71
2023/05/26 10:24:40;;;;;;;;;;;22.30;87.00;;;;;;6099810;23;20388;-71
2023/05/26 10:27:08;;;;;;;;;;;22.10;87.20;;;;;;6125593;23;19936;-71
2023/05/26 10:29:46;;;;;;;;;;;21.80;86.10;;;;;;6098974;23;19928;-71
2023/05/26 10:32:40;;;;;;;;;;;21.70;87.10;;;;;;6099915;23;19976;-71
2023/05/26 10:35:27;;;;;;;;;;;21.70;88.40;;;;;;6124923;23;20350;-71
2023/05/26 10:37:57;;;;;;;;;;;22.10;89.60;;;;;;6124631;23;20330;-69
2023/05/26 10:40:31;;;;;;;;;;;22.30;88.90;;;;;;6125974;23;19932;-69
2023/05/26 10:43:11;;;;;;;;;;;22.20;90.10;;;;;;6098675;23;19921;-69
2023/05/26 10:45:44;;;;;;;;;;;22.30;88.90;;;;;;6098381;23;19952;-69
2023/05/26 10:48:10;;;;;;;;;;;22.40;85.20;;;;;;6099657;23;19921;-69
2023/05/26 10:50:54;;;;;;;;;;;22.10;86.90;;;;;;6125091;23;19988;-69
2023/05/26 10:53:23;;;;;;;;;;;22.20;87.40;;;;;;6100254;23;20297;-70
2023/05/26 10:55:55;;;;;;;;;;;21.80;86.40;;;;;;6099066;23;19921;-70
2023/05/26 10:58:26;;;;;;;;;;;21.90;87.50;;;;;;6125051;23;19976;-69
2023/05/26 11:00:58;;;;;;;;;;;21.60;87.40;;;;;;6125572;23;19921;-69
2023/05/26 11:03:32;;;;;;;;;;;21.60;86.80;;;;;;6126252;23;19921;-70
2023/05/26 11:05:57;;;;;;;;;;;21.60;90.50;;;;;;6125768;23;20304;-70
2023/05/26 11:08:23;;;;;;;;;;;21.70;88.40;;;;;;6101241;23;19944;-70
2023/05/26 11:11:04;;;;;;;;;;;21.20;87.20;;;;;;6100157;23;19928;-69
2023/05/26 11:13:40;;;;;;;;;;;21.30;90.20;;;;;;6127848;23;19924;-69
2023/05/26 11:16:19;;;;;;;;;;;21.30;89.20;;;;;;6127350;23;19928;-69
2023/05/26 11:18:48;;;;;;;;;;;21.80;89.60;;;;;;6126626;23;19945;-69
2023/05/26 11:21:14;;;;;;;;;;;22.20;89.50;;;;;;6126474;23;19921;-70
2023/05/26 11:23:40;;;;;;;;;;;22.20;86.60;;;;;;6127249;23;19977;-70
2023/05/26 11:26:15;;;;;;;;;;;22.40;89.00;;;;;;6099569;23;19963;-70
2023/05/26 11:28:42;;;;;;;;;;;22.20;86.60;;;;;;6100749;23;19923;-70
2023/05/26 11:31:15;;;;;;;;;;;21.90;88.10;;;;;;6102953;23;20249;-72
2023/05/26 11:33:43;;;;;;;;;;;21.80;90.00;;;;;;6131149;23;19924;-72
2023/05/26 11:36:10;;;;;;;;;;;21.60;90.00;;;;;;6100409;23;19943;-71
2023/05/26 11:38:40;;;;;;;;;;;21.30;90.70;;;;;;6100352;23;19976;-70
2023/05/26 11:41:10;;;;;;;;;;;21.00;91.00;;;;;;6098814;23;19925;-71
2023/05/26 11:43:36;;;;;;;;;;;20.90;90.10;;;;;;6127057;23;19952;-71
2023/05/26 11:46:03;;;;;;;;;;;21.00;89.70;;;;;;6126234;23;20001;-71
2023/05/26 11:48:37;;;;;;;;;;;21.40;90.30;;;;;;6100462;23;19928;-72
2023/05/26 11:51:06;;;;;;;;;;;21.20;91.10;;;;;;6127862;23;19921;-72
2023/05/26 11:53:32;;;;;;;;;;;20.80;88.30;;;;;;6126445;23;19928;-72
2023/05/26 11:56:01;;;;;;;;;;;20.70;90.20;;;;;;6126605;23;19928;-73
2023/05/26 11:58:27;;;;;;;;;;;20.70;91.10;;;;;;6100876;23;19920;-72
2023/05/26 12:00:56;;;;;;;;;;;20.80;90.70;;;;;;6099670;23;20250;-72
2023/05/26 12:03:21;;;;;;;;;;;20.80;90.50;;;;;;6101143;23;19921;-74
2023/05/26 12:05:47;;;;;;;;;;;20.40;90.60;;;;;;6100752;23;19921;-72
2023/05/26 12:08:12;;;;;;;;;;;20.20;91.30;;;;;;6100848;23;19921;-71
2023/05/26 12:10:44;;;;;;;;;;;20.00;91.80;;;;;;6127286;23;19996;-74
2023/05/26 12:13:11;;;;;;;;;;;20.00;92.00;;;;;;6100031;23;19928;-74
2023/05/26 12:15:36;;;;;;;;;;;20.40;92.70;;;;;;6099424;23;19932;-71
2023/05/26 12:18:02;;;;;;;;;;;20.10;92.20;;;;;;6098954;23;19921;-71
2023/05/26 12:20:28;;;;;;;;;;;20.10;91.90;;;;;;6099660;23;19928;-71
2023/05/26 12:23:03;;;;;;;;;;;20.00;92.40;;;;;;6099573;23;19927;-72
2023/05/26 12:25:29;;;;;;;;;;;19.80;92.80;;;;;;6101360;23;19921;-71
2023/05/26 12:27:58;;;;;;;;;;;19.80;92.90;;;;;;6126804;23;20038;-72
2023/05/26 12:30:25;;;;;;;;;;;19.80;93.40;;;;;;6125592;23;20338;-71
2023/05/26 12:32:50;;;;;;;;;;;20.10;93.40;;;;;;6100415;23;19921;-74
2023/05/26 12:35:16;;;;;;;;;;;19.80;92.60;;;;;;6099338;23;19931;-72
2023/05/26 12:37:42;;;;;;;;;;;19.90;92.40;;;;;;6126889;23;19921;-71
2023/05/26 12:40:11;;;;;;;;;;;20.00;92.20;;;;;;6100219;23;20000;-71
2023/05/26 12:42:37;;;;;;;;;;;20.00;92.80;;;;;;6098926;23;19921;-71
2023/05/26 12:45:06;;;;;;;;;;;20.30;93.20;;;;;;6099854;23;20012;-71
2023/05/26 12:47:31;;;;;;;;;;;20.20;93.00;;;;;;6100411;23;19928;-71
2023/05/26 12:49:57;;;;;;;;;;;20.10;93.50;;;;;;6125465;23;19920;-70
2023/05/26 12:52:22;;;;;;;;;;;20.50;93.70;;;;;;6125115;23;19967;-72
2023/05/26 12:54:48;;;;;;;;;;;20.70;93.00;;;;;;6097238;23;19952;-72
2023/05/26 12:57:14;;;;;;;;;;;20.80;92.30;;;;;;6099567;23;19977;-73
2023/05/26 12:59:41;;;;;;;;;;;20.40;92.00;;;;;;6126960;23;20385;-74
2023/05/26 13:02:08;;;;;;;;;;;20.40;92.60;;;;;;6100325;23;19921;-75
2023/05/26 13:04:34;;;;;;;;;;;20.00;92.50;;;;;;6099119;23;19920;-73
2023/05/26 13:07:00;;;;;;;;;;;19.90;92.90;;;;;;6099663;23;19921;-75
2023/05/26 13:09:25;;;;;;;;;;;19.80;93.10;;;;;;6099798;23;19921;-75
2023/05/26 13:11:51;;;;;;;;;;;20.20;93.10;;;;;;6098927;23;19921;-74
2023/05/26 13:14:17;;;;;;;;;;;20.20;91.50;;;;;;6100444;23;19997;-72
2023/05/26 13:16:43;;;;;;;;;;;20.20;91.90;;;;;;6125933;23;20409;-72
2023/05/26 13:19:08;;;;;;;;;;;20.00;93.30;;;;;;6124551;23;19971;-73
2023/05/26 13:21:35;;;;;;;;;;;20.30;92.20;;;;;;6099683;23;19921;-70
2023/05/26 13:24:01;;;;;;;;;;;20.00;92.60;;;;;;6097412;23;20003;-70
2023/05/26 13:26:27;;;;;;;;;;;20.40;94.00;;;;;;6098559;23;19959;-71
2023/05/26 13:28:53;;;;;;;;;;;20.40;91.70;;;;;;6125217;23;19925;-71
2023/05/26 13:31:19;;;;;;;;;;;20.50;92.50;;;;;;6126032;23;19992;-71
2023/05/26 13:33:47;;;;;;;;;;;20.20;91.90;;;;;;6098575;23;19921;-72
2023/05/26 13:36:13;;;;;;;;;;;20.10;92.40;;;;;;6125665;23;19920;-71
2023/05/26 13:38:38;;;;;;;;;;;19.80;92.00;;;;;;6124677;23;19921;-72
2023/05/26 13:41:05;;;;;;;;;;;19.90;92.80;;;;;;6099717;23;19959;-75
2023/05/26 13:43:32;;;;;;;;;;;19.90;92.60;;;;;;6100320;23;19967;-73
2023/05/26 13:45:58;;;;;;;;;;;19.50;93.20;;;;;;6098935;23;19928;-73
2023/05/26 13:48:23;;;;;;;;;;;19.40;93.50;;;;;;6102272;23;19921;-72
2023/05/26 13:50:49;;;;;;;;;;;19.40;93.80;;;;;;6128443;23;19963;-73
2023/05/26 13:53:16;;;;;;;;;;;19.40;93.80;;;;;;6102824;23;19924;-74
2023/05/26 13:55:45;;;;;;;;;;;19.40;93.90;;;;;;6127330;23;19921;-74
2023/05/26 13:58:11;;;;;;;;;;;19.50;93.50;;;;;;6126625;23;19921;-72
2023/05/26 14:00:37;;;;;;;;;;;19.20;92.90;;;;;;6125023;23;19954;-73
2023/05/26 14:03:03;;;;;;;;;;;19.20;93.80;;;;;;6099745;23;19936;-73
2023/05/26 14:05:29;;;;;;;;;;;19.10;93.90;;;;;;6099090;23;20264;-74
2023/05/26 14:07:55;;;;;;;;;;;19.00;93.80;;;;;;6098187;23;19921;-73
2023/05/26 14:10:20;;;;;;;;;;;19.10;94.20;;;;;;6126099;23;19976;-75
2023/05/26 14:12:46;;;;;;;;;;;19.10;94.10;;;;;;6126097;23;19924;-75
2023/05/26 14:15:11;;;;;;;;;;;19.00;94.00;;;;;;6098324;23;19999;-78
2023/05/26 14:17:37;;;;;;;;;;;19.00;93.80;;;;;;6100121;23;20024;-74
2023/05/26 14:20:03;;;;;;;;;;;19.00;94.00;;;;;;6125402;23;19921;-74
2023/05/26 14:22:29;;;;;;;;;;;19.10;94.30;;;;;;6125430;23;19960;-74
2023/05/26 14:24:54;;;;;;;;;;;18.90;94.40;;;;;;6125832;23;19928;-74
2023/05/26 14:27:29;;;;;;;;;;;18.80;95.30;;;;;;6099791;23;19921;-74
2023/05/26 14:29:57;;;;;;;;;;;18.80;94.80;;;;;;6093503;23;20265;-76